sensor_id;sensor_type;location;lat;lon;timestamp;P1;durP1;ratioP1;P2;durP2;ratioP2
10248;SDS011;5169;50.560;9.714;2022-09-14T00:01:17;6.33;;;5.00;;
10248;SDS011;5169;50.560;9.714;2022-09-14T00:03:45;6.47;;;4.97;;
10248;SDS011;5169;50.560;9.714;2022-09-14T00:06:12;5.20;;;4.70;;
10248;SDS011;5169;50.560;9.714;2022-09-14T00:08:39;6.50;;;5.90;;
10248;SDS011;5169;50.560;9.714;2022-09-14T00:11:06;6.20;;;5.60;;
10248;SDS011;5169;50.560;9.714;2022-09-14T00:13:36;6.17;;;4.87;;
10248;SDS011;5169;50.560;9.714;2022-09-14T00:16:04;6.90;;;6.20;;
10248;SDS011;5169;50.560;9.714;2022-09-14T00:18:32;6.27;;;5.50;;
10248;SDS011;5169;50.560;9.714;2022-09-14T00:21:02;5.63;;;5.03;;
10248;SDS011;5169;50.560;9.714;2022-09-14T00:23:35;5.73;;;4.93;;
10248;SDS011;5169;50.560;9.714;2022-09-14T00:26:06;5.13;;;4.63;;
10248;SDS011;5169;50.560;9.714;2022-09-14T00:28:43;6.13;;;5.20;;
10248;SDS011;5169;50.560;9.714;2022-09-14T00:31:11;7.00;;;5.30;;
10248;SDS011;5169;50.560;9.714;2022-09-14T00:33:43;8.13;;;5.63;;
10248;SDS011;5169;50.560;9.714;2022-09-14T00:36:16;9.73;;;5.70;;
10248;SDS011;5169;50.560;9.714;2022-09-14T00:38:53;6.87;;;5.87;;
10248;SDS011;5169;50.560;9.714;2022-09-14T00:41:22;6.10;;;5.10;;
10248;SDS011;5169;50.560;9.714;2022-09-14T00:46:46;6.37;;;4.83;;
10248;SDS011;5169;50.560;9.714;2022-09-14T00:49:14;7.57;;;5.60;;
10248;SDS011;5169;50.560;9.714;2022-09-14T00:51:44;5.23;;;4.63;;
10248;SDS011;5169;50.560;9.714;2022-09-14T00:54:14;6.17;;;5.13;;
10248;SDS011;5169;50.560;9.714;2022-09-14T00:56:44;7.80;;;5.33;;
10248;SDS011;5169;50.560;9.714;2022-09-14T00:59:14;6.47;;;5.30;;
10248;SDS011;5169;50.560;9.714;2022-09-14T01:01:45;5.17;;;4.67;;
10248;SDS011;5169;50.560;9.714;2022-09-14T01:04:12;6.50;;;5.50;;
10248;SDS011;5169;50.560;9.714;2022-09-14T01:09:41;5.97;;;4.90;;
10248;SDS011;5169;50.560;9.714;2022-09-14T01:20:36;6.77;;;5.80;;
10248;SDS011;5169;50.560;9.714;2022-09-14T01:23:07;6.83;;;5.57;;
10248;SDS011;5169;50.560;9.714;2022-09-14T01:28:55;9.73;;;5.70;;
10248;SDS011;5169;50.560;9.714;2022-09-14T01:33:56;6.67;;;5.67;;
10248;SDS011;5169;50.560;9.714;2022-09-14T01:36:33;6.37;;;5.40;;
10248;SDS011;5169;50.560;9.714;2022-09-14T01:39:02;8.93;;;5.33;;
10248;SDS011;5169;50.560;9.714;2022-09-14T01:41:29;6.77;;;4.63;;
10248;SDS011;5169;50.560;9.714;2022-09-14T01:43:59;7.20;;;5.30;;
10248;SDS011;5169;50.560;9.714;2022-09-14T01:46:40;5.17;;;4.67;;
10248;SDS011;5169;50.560;9.714;2022-09-14T01:51:55;6.37;;;5.77;;
10248;SDS011;5169;50.560;9.714;2022-09-14T01:54:41;7.00;;;6.30;;
10248;SDS011;5169;50.560;9.714;2022-09-14T01:59:51;7.63;;;6.87;;
10248;SDS011;5169;50.560;9.714;2022-09-14T02:07:25;9.47;;;8.43;;
10248;SDS011;5169;50.560;9.714;2022-09-14T02:09:51;10.53;;;7.97;;
10248;SDS011;5169;50.560;9.714;2022-09-14T02:12:20;8.73;;;7.83;;
10248;SDS011;5169;50.560;9.714;2022-09-14T02:14:47;8.97;;;7.73;;
10248;SDS011;5169;50.560;9.714;2022-09-14T02:17:14;11.90;;;8.23;;
10248;SDS011;5169;50.560;9.714;2022-09-14T02:19:43;9.93;;;8.93;;
10248;SDS011;5169;50.560;9.714;2022-09-14T02:22:21;9.10;;;7.50;;
10248;SDS011;5169;50.560;9.714;2022-09-14T02:24:50;9.27;;;8.13;;
10248;SDS011;5169;50.560;9.714;2022-09-14T02:27:16;7.87;;;7.07;;
10248;SDS011;5169;50.560;9.714;2022-09-14T02:29:44;8.00;;;7.20;;
10248;SDS011;5169;50.560;9.714;2022-09-14T02:48:01;7.20;;;6.50;;
10248;SDS011;5169;50.560;9.714;2022-09-14T02:55:35;7.80;;;7.00;;
10248;SDS011;5169;50.560;9.714;2022-09-14T02:58:06;7.73;;;6.50;;
10248;SDS011;5169;50.560;9.714;2022-09-14T03:00:37;8.27;;;6.63;;
10248;SDS011;5169;50.560;9.714;2022-09-14T03:03:05;7.50;;;6.80;;
10248;SDS011;5169;50.560;9.714;2022-09-14T03:05:34;8.87;;;6.80;;
10248;SDS011;5169;50.560;9.714;2022-09-14T03:08:00;9.40;;;7.33;;
10248;SDS011;5169;50.560;9.714;2022-09-14T03:10:30;7.80;;;7.00;;
10248;SDS011;5169;50.560;9.714;2022-09-14T03:12:58;8.30;;;7.37;;
10248;SDS011;5169;50.560;9.714;2022-09-14T03:15:24;10.43;;;7.73;;
10248;SDS011;5169;50.560;9.714;2022-09-14T03:17:51;9.10;;;7.90;;
10248;SDS011;5169;50.560;9.714;2022-09-14T03:20:23;9.60;;;7.50;;
10248;SDS011;5169;50.560;9.714;2022-09-14T03:22:52;9.43;;;8.50;;
10248;SDS011;5169;50.560;9.714;2022-09-14T03:25:18;10.30;;;8.27;;
10248;SDS011;5169;50.560;9.714;2022-09-14T03:27:51;12.43;;;8.40;;
10248;SDS011;5169;50.560;9.714;2022-09-14T03:30:18;9.77;;;8.77;;
10248;SDS011;5169;50.560;9.714;2022-09-14T03:32:45;10.17;;;8.37;;
10248;SDS011;5169;50.560;9.714;2022-09-14T03:35:11;11.33;;;8.40;;
10248;SDS011;5169;50.560;9.714;2022-09-14T03:37:40;10.17;;;7.70;;
10248;SDS011;5169;50.560;9.714;2022-09-14T03:40:07;8.97;;;7.87;;
10248;SDS011;5169;50.560;9.714;2022-09-14T03:42:34;9.60;;;8.13;;
10248;SDS011;5169;50.560;9.714;2022-09-14T03:44:59;8.77;;;7.73;;
10248;SDS011;5169;50.560;9.714;2022-09-14T03:47:25;10.00;;;7.83;;
10248;SDS011;5169;50.560;9.714;2022-09-14T03:49:51;8.87;;;7.17;;
10248;SDS011;5169;50.560;9.714;2022-09-14T03:52:17;7.77;;;7.03;;
10248;SDS011;5169;50.560;9.714;2022-09-14T03:54:43;7.70;;;6.90;;
10248;SDS011;5169;50.560;9.714;2022-09-14T03:57:10;8.17;;;7.10;;
10248;SDS011;5169;50.560;9.714;2022-09-14T03:59:36;9.50;;;7.43;;
10248;SDS011;5169;50.560;9.714;2022-09-14T04:02:02;8.57;;;7.40;;
10248;SDS011;5169;50.560;9.714;2022-09-14T04:04:27;8.63;;;7.80;;
10248;SDS011;5169;50.560;9.714;2022-09-14T04:06:53;7.83;;;7.10;;
10248;SDS011;5169;50.560;9.714;2022-09-14T04:09:19;8.00;;;7.00;;
10248;SDS011;5169;50.560;9.714;2022-09-14T04:11:45;10.33;;;7.70;;
10248;SDS011;5169;50.560;9.714;2022-09-14T04:14:14;8.43;;;7.60;;
10248;SDS011;5169;50.560;9.714;2022-09-14T04:16:40;8.20;;;7.40;;
10248;SDS011;5169;50.560;9.714;2022-09-14T04:19:07;8.70;;;7.43;;
10248;SDS011;5169;50.560;9.714;2022-09-14T04:21:36;7.97;;;7.13;;
10248;SDS011;5169;50.560;9.714;2022-09-14T04:24:04;9.17;;;7.33;;
10248;SDS011;5169;50.560;9.714;2022-09-14T04:26:33;8.80;;;7.43;;
10248;SDS011;5169;50.560;9.714;2022-09-14T04:28:59;9.93;;;8.17;;
10248;SDS011;5169;50.560;9.714;2022-09-14T04:31:25;9.50;;;8.43;;
10248;SDS011;5169;50.560;9.714;2022-09-14T04:33:52;10.03;;;8.63;;
10248;SDS011;5169;50.560;9.714;2022-09-14T04:36:20;11.10;;;9.07;;
10248;SDS011;5169;50.560;9.714;2022-09-14T04:38:47;8.90;;;8.00;;
10248;SDS011;5169;50.560;9.714;2022-09-14T04:41:18;8.67;;;7.67;;
10248;SDS011;5169;50.560;9.714;2022-09-14T04:43:45;10.07;;;7.63;;
10248;SDS011;5169;50.560;9.714;2022-09-14T04:46:16;8.07;;;7.27;;
10248;SDS011;5169;50.560;9.714;2022-09-14T04:48:46;9.93;;;7.47;;
10248;SDS011;5169;50.560;9.714;2022-09-14T04:51:13;9.83;;;8.83;;
10248;SDS011;5169;50.560;9.714;2022-09-14T04:53:41;10.27;;;7.77;;
10248;SDS011;5169;50.560;9.714;2022-09-14T04:56:10;8.90;;;7.27;;
10248;SDS011;5169;50.560;9.714;2022-09-14T04:58:40;7.53;;;6.67;;
10248;SDS011;5169;50.560;9.714;2022-09-14T05:01:13;8.67;;;6.53;;
10248;SDS011;5169;50.560;9.714;2022-09-14T05:03:43;7.23;;;6.53;;
10248;SDS011;5169;50.560;9.714;2022-09-14T05:06:13;7.87;;;6.00;;
10248;SDS011;5169;50.560;9.714;2022-09-14T05:08:43;7.30;;;6.60;;
10248;SDS011;5169;50.560;9.714;2022-09-14T05:11:15;9.20;;;6.50;;
10248;SDS011;5169;50.560;9.714;2022-09-14T05:13:47;6.63;;;5.70;;
10248;SDS011;5169;50.560;9.714;2022-09-14T05:18:41;9.13;;;6.57;;
10248;SDS011;5169;50.560;9.714;2022-09-14T05:21:13;6.97;;;6.30;;
10248;SDS011;5169;50.560;9.714;2022-09-14T05:23:40;7.20;;;6.30;;
10248;SDS011;5169;50.560;9.714;2022-09-14T05:26:06;8.60;;;7.00;;
10248;SDS011;5169;50.560;9.714;2022-09-14T05:28:32;8.93;;;7.07;;
10248;SDS011;5169;50.560;9.714;2022-09-14T05:31:02;7.73;;;6.93;;
10248;SDS011;5169;50.560;9.714;2022-09-14T05:33:29;7.60;;;6.90;;
10248;SDS011;5169;50.560;9.714;2022-09-14T05:35:58;8.57;;;6.60;;
10248;SDS011;5169;50.560;9.714;2022-09-14T05:38:30;7.57;;;6.70;;
10248;SDS011;5169;50.560;9.714;2022-09-14T05:40:58;6.80;;;6.10;;
10248;SDS011;5169;50.560;9.714;2022-09-14T05:43:24;7.90;;;7.00;;
10248;SDS011;5169;50.560;9.714;2022-09-14T05:45:49;7.23;;;6.63;;
10248;SDS011;5169;50.560;9.714;2022-09-14T05:48:15;7.73;;;6.53;;
10248;SDS011;5169;50.560;9.714;2022-09-14T05:50:44;9.20;;;7.43;;
10248;SDS011;5169;50.560;9.714;2022-09-14T05:53:09;7.77;;;7.03;;
10248;SDS011;5169;50.560;9.714;2022-09-14T05:55:35;8.03;;;7.23;;
10248;SDS011;5169;50.560;9.714;2022-09-14T05:58:01;8.20;;;7.40;;
10248;SDS011;5169;50.560;9.714;2022-09-14T06:00:26;9.20;;;8.27;;
10248;SDS011;5169;50.560;9.714;2022-09-14T06:02:53;7.60;;;6.90;;
10248;SDS011;5169;50.560;9.714;2022-09-14T06:05:19;8.83;;;7.33;;
10248;SDS011;5169;50.560;9.714;2022-09-14T06:07:49;8.33;;;7.53;;
10248;SDS011;5169;50.560;9.714;2022-09-14T06:10:19;7.30;;;6.60;;
10248;SDS011;5169;50.560;9.714;2022-09-14T06:12:47;9.00;;;7.93;;
10248;SDS011;5169;50.560;9.714;2022-09-14T06:15:13;8.83;;;7.53;;
10248;SDS011;5169;50.560;9.714;2022-09-14T06:17:39;8.37;;;7.37;;
10248;SDS011;5169;50.560;9.714;2022-09-14T06:20:05;9.33;;;7.73;;
10248;SDS011;5169;50.560;9.714;2022-09-14T06:22:31;9.20;;;7.60;;
10248;SDS011;5169;50.560;9.714;2022-09-14T06:24:57;8.00;;;7.20;;
10248;SDS011;5169;50.560;9.714;2022-09-14T06:27:23;8.47;;;7.57;;
10248;SDS011;5169;50.560;9.714;2022-09-14T06:29:51;7.97;;;6.80;;
10248;SDS011;5169;50.560;9.714;2022-09-14T06:32:18;7.63;;;6.83;;
10248;SDS011;5169;50.560;9.714;2022-09-14T06:34:44;11.60;;;8.10;;
10248;SDS011;5169;50.560;9.714;2022-09-14T06:37:12;8.13;;;6.40;;
10248;SDS011;5169;50.560;9.714;2022-09-14T06:39:38;7.73;;;6.93;;
10248;SDS011;5169;50.560;9.714;2022-09-14T06:42:04;8.27;;;7.30;;
10248;SDS011;5169;50.560;9.714;2022-09-14T06:44:32;9.00;;;7.40;;
10248;SDS011;5169;50.560;9.714;2022-09-14T06:46:59;8.60;;;7.67;;
10248;SDS011;5169;50.560;9.714;2022-09-14T06:49:28;8.00;;;7.20;;
10248;SDS011;5169;50.560;9.714;2022-09-14T06:51:54;7.83;;;6.93;;
10248;SDS011;5169;50.560;9.714;2022-09-14T06:54:21;8.33;;;7.47;;
10248;SDS011;5169;50.560;9.714;2022-09-14T06:56:50;8.70;;;7.53;;
10248;SDS011;5169;50.560;9.714;2022-09-14T06:59:16;8.20;;;7.07;;
10248;SDS011;5169;50.560;9.714;2022-09-14T07:01:44;8.80;;;7.60;;
10248;SDS011;5169;50.560;9.714;2022-09-14T07:04:10;8.53;;;6.87;;
10248;SDS011;5169;50.560;9.714;2022-09-14T07:06:40;8.03;;;6.97;;
10248;SDS011;5169;50.560;9.714;2022-09-14T07:09:08;8.13;;;7.17;;
10248;SDS011;5169;50.560;9.714;2022-09-14T07:11:33;8.43;;;7.53;;
10248;SDS011;5169;50.560;9.714;2022-09-14T07:14:02;8.83;;;7.60;;
10248;SDS011;5169;50.560;9.714;2022-09-14T07:16:29;8.97;;;8.07;;
10248;SDS011;5169;50.560;9.714;2022-09-14T07:18:59;8.87;;;6.77;;
10248;SDS011;5169;50.560;9.714;2022-09-14T07:21:27;6.83;;;6.13;;
10248;SDS011;5169;50.560;9.714;2022-09-14T07:23:53;7.53;;;5.90;;
10248;SDS011;5169;50.560;9.714;2022-09-14T07:26:23;6.83;;;5.70;;
10248;SDS011;5169;50.560;9.714;2022-09-14T07:28:54;6.10;;;5.50;;
10248;SDS011;5169;50.560;9.714;2022-09-14T07:31:24;6.43;;;5.33;;
10248;SDS011;5169;50.560;9.714;2022-09-14T07:33:53;5.30;;;4.80;;
10248;SDS011;5169;50.560;9.714;2022-09-14T07:36:26;5.87;;;5.33;;
10248;SDS011;5169;50.560;9.714;2022-09-14T07:38:57;6.73;;;4.90;;
10248;SDS011;5169;50.560;9.714;2022-09-14T07:41:24;5.47;;;4.77;;
10248;SDS011;5169;50.560;9.714;2022-09-14T07:43:52;6.13;;;5.53;;
10248;SDS011;5169;50.560;9.714;2022-09-14T07:46:24;5.63;;;4.50;;
10248;SDS011;5169;50.560;9.714;2022-09-14T07:48:54;5.53;;;4.50;;
10248;SDS011;5169;50.560;9.714;2022-09-14T07:51:21;7.13;;;4.63;;
10248;SDS011;5169;50.560;9.714;2022-09-14T07:53:48;6.70;;;4.87;;
10248;SDS011;5169;50.560;9.714;2022-09-14T07:56:13;5.73;;;4.23;;
10248;SDS011;5169;50.560;9.714;2022-09-14T07:58:40;6.83;;;4.67;;
10248;SDS011;5169;50.560;9.714;2022-09-14T08:01:07;5.20;;;4.70;;
10248;SDS011;5169;50.560;9.714;2022-09-14T08:03:41;9.23;;;4.10;;
10248;SDS011;5169;50.560;9.714;2022-09-14T08:06:09;5.17;;;4.30;;
10248;SDS011;5169;50.560;9.714;2022-09-14T08:08:38;5.57;;;3.90;;
10248;SDS011;5169;50.560;9.714;2022-09-14T08:11:07;4.60;;;4.10;;
10248;SDS011;5169;50.560;9.714;2022-09-14T08:13:35;4.00;;;3.60;;
10248;SDS011;5169;50.560;9.714;2022-09-14T08:16:02;5.00;;;3.97;;
10248;SDS011;5169;50.560;9.714;2022-09-14T08:18:29;4.40;;;3.77;;
10248;SDS011;5169;50.560;9.714;2022-09-14T08:23:31;3.97;;;2.80;;
10248;SDS011;5169;50.560;9.714;2022-09-14T08:28:39;3.93;;;3.47;;
10248;SDS011;5169;50.560;9.714;2022-09-14T08:31:10;4.73;;;3.80;;
10248;SDS011;5169;50.560;9.714;2022-09-14T08:33:38;4.57;;;3.60;;
10248;SDS011;5169;50.560;9.714;2022-09-14T08:36:06;6.07;;;3.40;;
10248;SDS011;5169;50.560;9.714;2022-09-14T08:38:34;5.43;;;4.00;;
10248;SDS011;5169;50.560;9.714;2022-09-14T08:41:25;6.00;;;3.30;;
10248;SDS011;5169;50.560;9.714;2022-09-14T08:46:47;3.70;;;3.40;;
10248;SDS011;5169;50.560;9.714;2022-09-14T08:49:30;3.90;;;3.50;;
10248;SDS011;5169;50.560;9.714;2022-09-14T08:51:57;6.00;;;3.50;;
10248;SDS011;5169;50.560;9.714;2022-09-14T08:54:23;3.83;;;3.53;;
10248;SDS011;5169;50.560;9.714;2022-09-14T08:56:52;5.13;;;3.40;;
10248;SDS011;5169;50.560;9.714;2022-09-14T09:04:56;5.13;;;3.70;;
10248;SDS011;5169;50.560;9.714;2022-09-14T09:07:45;5.13;;;3.63;;
10248;SDS011;5169;50.560;9.714;2022-09-14T09:10:25;6.13;;;3.97;;
10248;SDS011;5169;50.560;9.714;2022-09-14T09:12:53;5.07;;;3.30;;
10248;SDS011;5169;50.560;9.714;2022-09-14T09:15:23;3.93;;;3.07;;
10248;SDS011;5169;50.560;9.714;2022-09-14T09:17:53;4.07;;;3.27;;
10248;SDS011;5169;50.560;9.714;2022-09-14T09:20:25;3.30;;;3.00;;
10248;SDS011;5169;50.560;9.714;2022-09-14T09:25:49;3.40;;;3.10;;
10248;SDS011;5169;50.560;9.714;2022-09-14T09:28:18;4.27;;;3.33;;
10248;SDS011;5169;50.560;9.714;2022-09-14T09:30:46;4.43;;;3.03;;
10248;SDS011;5169;50.560;9.714;2022-09-14T09:33:22;4.03;;;3.03;;
10248;SDS011;5169;50.560;9.714;2022-09-14T09:35:50;4.53;;;3.10;;
10248;SDS011;5169;50.560;9.714;2022-09-14T09:38:18;4.33;;;2.90;;
10248;SDS011;5169;50.560;9.714;2022-09-14T09:40:50;5.00;;;3.03;;
10248;SDS011;5169;50.560;9.714;2022-09-14T09:43:19;4.50;;;3.50;;
10248;SDS011;5169;50.560;9.714;2022-09-14T09:48:45;4.67;;;3.50;;
10248;SDS011;5169;50.560;9.714;2022-09-14T09:51:24;5.70;;;3.70;;
10248;SDS011;5169;50.560;9.714;2022-09-14T09:54:04;3.90;;;3.60;;
10248;SDS011;5169;50.560;9.714;2022-09-14T09:56:38;5.37;;;3.63;;
10248;SDS011;5169;50.560;9.714;2022-09-14T09:59:40;4.20;;;3.47;;
10248;SDS011;5169;50.560;9.714;2022-09-14T10:07:23;3.97;;;3.57;;
10248;SDS011;5169;50.560;9.714;2022-09-14T10:10:00;4.17;;;3.20;;
10248;SDS011;5169;50.560;9.714;2022-09-14T10:12:29;3.93;;;3.37;;
10248;SDS011;5169;50.560;9.714;2022-09-14T10:17:36;3.53;;;3.10;;
10248;SDS011;5169;50.560;9.714;2022-09-14T10:20:05;4.57;;;3.30;;
10248;SDS011;5169;50.560;9.714;2022-09-14T10:22:32;4.57;;;3.20;;
10248;SDS011;5169;50.560;9.714;2022-09-14T10:25:00;3.50;;;2.70;;
10248;SDS011;5169;50.560;9.714;2022-09-14T10:27:48;4.53;;;2.97;;
10248;SDS011;5169;50.560;9.714;2022-09-14T10:30:24;5.33;;;3.27;;
10248;SDS011;5169;50.560;9.714;2022-09-14T10:33:00;4.63;;;2.70;;
10248;SDS011;5169;50.560;9.714;2022-09-14T10:46:09;3.10;;;1.70;;
10248;SDS011;5169;50.560;9.714;2022-09-14T10:59:51;1.93;;;1.50;;
10248;SDS011;5169;50.560;9.714;2022-09-14T11:25:23;2.97;;;2.43;;
10248;SDS011;5169;50.560;9.714;2022-09-14T11:27:42;4.17;;;2.70;;
10248;SDS011;5169;50.560;9.714;2022-09-14T11:32:44;4.30;;;3.60;;
10248;SDS011;5169;50.560;9.714;2022-09-14T11:38:06;4.03;;;3.13;;
10248;SDS011;5169;50.560;9.714;2022-09-14T11:40:42;4.83;;;2.70;;
10248;SDS011;5169;50.560;9.714;2022-09-14T11:43:28;3.57;;;2.70;;
10248;SDS011;5169;50.560;9.714;2022-09-14T11:46:06;5.27;;;3.13;;
10248;SDS011;5169;50.560;9.714;2022-09-14T11:51:20;2.60;;;2.40;;
10248;SDS011;5169;50.560;9.714;2022-09-14T11:54:14;4.57;;;2.80;;
10248;SDS011;5169;50.560;9.714;2022-09-14T11:56:42;3.53;;;2.37;;
10248;SDS011;5169;50.560;9.714;2022-09-14T11:59:30;2.57;;;2.30;;
10248;SDS011;5169;50.560;9.714;2022-09-14T12:12:39;3.47;;;3.00;;
10248;SDS011;5169;50.560;9.714;2022-09-14T12:17:41;6.27;;;3.30;;
10248;SDS011;5169;50.560;9.714;2022-09-14T12:20:25;3.97;;;3.60;;
10248;SDS011;5169;50.560;9.714;2022-09-14T12:23:02;5.03;;;4.50;;
10248;SDS011;5169;50.560;9.714;2022-09-14T12:46:00;8.77;;;7.97;;
10248;SDS011;5169;50.560;9.714;2022-09-14T13:05:02;12.63;;;9.00;;
10248;SDS011;5169;50.560;9.714;2022-09-14T13:07:33;11.33;;;10.13;;
10248;SDS011;5169;50.560;9.714;2022-09-14T13:10:00;11.70;;;10.60;;
10248;SDS011;5169;50.560;9.714;2022-09-14T13:12:39;11.87;;;10.73;;
10248;SDS011;5169;50.560;9.714;2022-09-14T13:15:19;13.37;;;11.83;;
10248;SDS011;5169;50.560;9.714;2022-09-14T13:20:25;17.17;;;13.63;;
10248;SDS011;5169;50.560;9.714;2022-09-14T13:22:51;15.27;;;13.67;;
10248;SDS011;5169;50.560;9.714;2022-09-14T13:25:29;14.93;;;13.40;;
10248;SDS011;5169;50.560;9.714;2022-09-14T13:28:01;15.30;;;13.83;;
10248;SDS011;5169;50.560;9.714;2022-09-14T13:30:30;16.03;;;14.40;;
10248;SDS011;5169;50.560;9.714;2022-09-14T13:32:57;15.30;;;13.90;;
10248;SDS011;5169;50.560;9.714;2022-09-14T13:37:49;17.60;;;15.90;;
10248;SDS011;5169;50.560;9.714;2022-09-14T13:40:15;17.10;;;15.50;;
10248;SDS011;5169;50.560;9.714;2022-09-14T13:42:41;16.53;;;14.87;;
10248;SDS011;5169;50.560;9.714;2022-09-14T13:45:08;17.43;;;15.73;;
10248;SDS011;5169;50.560;9.714;2022-09-14T13:47:36;21.00;;;18.90;;
10248;SDS011;5169;50.560;9.714;2022-09-14T13:50:11;20.07;;;18.10;;
10248;SDS011;5169;50.560;9.714;2022-09-14T13:52:40;20.77;;;18.73;;
10248;SDS011;5169;50.560;9.714;2022-09-14T13:57:39;22.30;;;19.70;;
10248;SDS011;5169;50.560;9.714;2022-09-14T14:00:24;22.10;;;19.90;;
10248;SDS011;5169;50.560;9.714;2022-09-14T14:02:58;23.40;;;21.00;;
10248;SDS011;5169;50.560;9.714;2022-09-14T14:05:27;23.93;;;21.17;;
10248;SDS011;5169;50.560;9.714;2022-09-14T14:07:56;23.60;;;21.10;;
10248;SDS011;5169;50.560;9.714;2022-09-14T14:13:01;24.17;;;21.67;;
10248;SDS011;5169;50.560;9.714;2022-09-14T14:15:35;25.07;;;22.40;;
10248;SDS011;5169;50.560;9.714;2022-09-14T14:23:46;24.40;;;21.90;;
10248;SDS011;5169;50.560;9.714;2022-09-14T14:26:14;23.50;;;21.10;;
10248;SDS011;5169;50.560;9.714;2022-09-14T14:28:46;21.27;;;19.00;;
10248;SDS011;5169;50.560;9.714;2022-09-14T14:31:15;22.47;;;20.17;;
10248;SDS011;5169;50.560;9.714;2022-09-14T14:33:50;22.33;;;19.77;;
10248;SDS011;5169;50.560;9.714;2022-09-14T14:36:19;22.67;;;20.27;;
10248;SDS011;5169;50.560;9.714;2022-09-14T14:38:47;24.00;;;21.40;;
10248;SDS011;5169;50.560;9.714;2022-09-14T14:41:14;22.83;;;20.50;;
10248;SDS011;5169;50.560;9.714;2022-09-14T14:43:45;22.90;;;20.53;;
10248;SDS011;5169;50.560;9.714;2022-09-14T14:46:13;21.30;;;18.97;;
10248;SDS011;5169;50.560;9.714;2022-09-14T14:48:40;22.70;;;20.30;;
10248;SDS011;5169;50.560;9.714;2022-09-14T14:51:11;24.07;;;20.63;;
10248;SDS011;5169;50.560;9.714;2022-09-14T14:53:39;23.93;;;21.07;;
10248;SDS011;5169;50.560;9.714;2022-09-14T14:56:05;25.13;;;22.43;;
10248;SDS011;5169;50.560;9.714;2022-09-14T14:58:33;24.23;;;21.63;;
10248;SDS011;5169;50.560;9.714;2022-09-14T15:01:06;25.37;;;22.67;;
10248;SDS011;5169;50.560;9.714;2022-09-14T15:03:32;25.77;;;22.90;;
10248;SDS011;5169;50.560;9.714;2022-09-14T15:05:58;26.03;;;23.33;;
10248;SDS011;5169;50.560;9.714;2022-09-14T15:08:23;26.77;;;23.83;;
10248;SDS011;5169;50.560;9.714;2022-09-14T15:10:54;30.73;;;25.17;;
10248;SDS011;5169;50.560;9.714;2022-09-14T15:13:20;28.30;;;24.43;;
10248;SDS011;5169;50.560;9.714;2022-09-14T15:15:51;26.07;;;23.27;;
10248;SDS011;5169;50.560;9.714;2022-09-14T15:18:16;25.53;;;22.83;;
10248;SDS011;5169;50.560;9.714;2022-09-14T15:20:42;28.17;;;22.50;;
10248;SDS011;5169;50.560;9.714;2022-09-14T15:23:08;24.70;;;20.67;;
10248;SDS011;5169;50.560;9.714;2022-09-14T15:25:36;24.87;;;20.57;;
10248;SDS011;5169;50.560;9.714;2022-09-14T15:28:01;22.70;;;20.30;;
10248;SDS011;5169;50.560;9.714;2022-09-14T15:30:27;22.70;;;20.13;;
10248;SDS011;5169;50.560;9.714;2022-09-14T15:32:53;29.47;;;23.57;;
10248;SDS011;5169;50.560;9.714;2022-09-14T15:35:18;31.13;;;24.37;;
10248;SDS011;5169;50.560;9.714;2022-09-14T15:37:45;24.20;;;20.37;;
10248;SDS011;5169;50.560;9.714;2022-09-14T15:40:11;24.27;;;21.77;;
10248;SDS011;5169;50.560;9.714;2022-09-14T15:42:39;24.30;;;21.77;;
10248;SDS011;5169;50.560;9.714;2022-09-14T15:45:05;26.73;;;22.73;;
10248;SDS011;5169;50.560;9.714;2022-09-14T15:47:31;27.00;;;22.33;;
10248;SDS011;5169;50.560;9.714;2022-09-14T15:49:59;24.17;;;21.40;;
10248;SDS011;5169;50.560;9.714;2022-09-14T15:52:25;25.20;;;22.57;;
10248;SDS011;5169;50.560;9.714;2022-09-14T15:54:50;26.97;;;23.50;;
10248;SDS011;5169;50.560;9.714;2022-09-14T15:57:16;25.13;;;22.27;;
10248;SDS011;5169;50.560;9.714;2022-09-14T15:59:42;25.93;;;23.07;;
10248;SDS011;5169;50.560;9.714;2022-09-14T16:02:08;28.63;;;24.07;;
10248;SDS011;5169;50.560;9.714;2022-09-14T16:04:36;24.63;;;21.63;;
10248;SDS011;5169;50.560;9.714;2022-09-14T16:07:03;24.33;;;20.80;;
10248;SDS011;5169;50.560;9.714;2022-09-14T16:09:33;25.57;;;22.87;;
10248;SDS011;5169;50.560;9.714;2022-09-14T16:12:02;26.83;;;23.67;;
10248;SDS011;5169;50.560;9.714;2022-09-14T16:14:28;24.77;;;22.03;;
10248;SDS011;5169;50.560;9.714;2022-09-14T16:16:56;24.53;;;20.80;;
10248;SDS011;5169;50.560;9.714;2022-09-14T16:19:22;21.33;;;18.83;;
10248;SDS011;5169;50.560;9.714;2022-09-14T16:21:47;20.77;;;18.57;;
10248;SDS011;5169;50.560;9.714;2022-09-14T16:24:15;21.93;;;18.07;;
10248;SDS011;5169;50.560;9.714;2022-09-14T16:26:42;21.23;;;18.70;;
10248;SDS011;5169;50.560;9.714;2022-09-14T16:29:14;19.23;;;17.13;;
10248;SDS011;5169;50.560;9.714;2022-09-14T16:31:44;18.40;;;16.40;;
10248;SDS011;5169;50.560;9.714;2022-09-14T16:34:21;20.30;;;17.17;;
10248;SDS011;5169;50.560;9.714;2022-09-14T16:36:48;21.07;;;16.63;;
10248;SDS011;5169;50.560;9.714;2022-09-14T16:39:18;18.27;;;14.80;;
10248;SDS011;5169;50.560;9.714;2022-09-14T16:41:49;17.50;;;15.30;;
10248;SDS011;5169;50.560;9.714;2022-09-14T16:44:20;16.53;;;14.57;;
10248;SDS011;5169;50.560;9.714;2022-09-14T16:46:48;16.23;;;14.47;;
10248;SDS011;5169;50.560;9.714;2022-09-14T16:49:15;16.97;;;14.57;;
10248;SDS011;5169;50.560;9.714;2022-09-14T16:51:41;14.17;;;12.67;;
10248;SDS011;5169;50.560;9.714;2022-09-14T16:54:07;13.77;;;12.37;;
10248;SDS011;5169;50.560;9.714;2022-09-14T16:56:41;14.27;;;12.77;;
10248;SDS011;5169;50.560;9.714;2022-09-14T16:59:09;15.07;;;13.50;;
10248;SDS011;5169;50.560;9.714;2022-09-14T17:01:38;15.13;;;13.50;;
10248;SDS011;5169;50.560;9.714;2022-09-14T17:04:09;14.93;;;12.83;;
10248;SDS011;5169;50.560;9.714;2022-09-14T17:06:39;14.03;;;12.63;;
10248;SDS011;5169;50.560;9.714;2022-09-14T17:09:07;14.57;;;13.07;;
10248;SDS011;5169;50.560;9.714;2022-09-14T17:11:44;14.77;;;13.17;;
10248;SDS011;5169;50.560;9.714;2022-09-14T17:14:15;13.87;;;12.47;;
10248;SDS011;5169;50.560;9.714;2022-09-14T17:16:43;13.23;;;11.40;;
10248;SDS011;5169;50.560;9.714;2022-09-14T17:19:11;14.00;;;12.10;;
10248;SDS011;5169;50.560;9.714;2022-09-14T17:21:38;12.80;;;11.50;;
10248;SDS011;5169;50.560;9.714;2022-09-14T17:24:05;12.67;;;11.27;;
10248;SDS011;5169;50.560;9.714;2022-09-14T17:26:31;13.07;;;11.63;;
10248;SDS011;5169;50.560;9.714;2022-09-14T17:29:00;13.63;;;10.97;;
10248;SDS011;5169;50.560;9.714;2022-09-14T17:31:32;10.73;;;9.63;;
10248;SDS011;5169;50.560;9.714;2022-09-14T17:34:00;11.97;;;10.77;;
10248;SDS011;5169;50.560;9.714;2022-09-14T17:36:27;11.30;;;10.20;;
10248;SDS011;5169;50.560;9.714;2022-09-14T17:38:56;11.33;;;10.13;;
10248;SDS011;5169;50.560;9.714;2022-09-14T17:41:23;11.70;;;10.50;;
10248;SDS011;5169;50.560;9.714;2022-09-14T17:43:53;13.53;;;10.60;;
10248;SDS011;5169;50.560;9.714;2022-09-14T17:46:23;11.97;;;10.73;;
10248;SDS011;5169;50.560;9.714;2022-09-14T17:48:52;13.10;;;11.53;;
10248;SDS011;5169;50.560;9.714;2022-09-14T17:51:21;12.40;;;11.10;;
10248;SDS011;5169;50.560;9.714;2022-09-14T17:53:52;12.13;;;10.53;;
10248;SDS011;5169;50.560;9.714;2022-09-14T17:56:20;11.07;;;9.90;;
10248;SDS011;5169;50.560;9.714;2022-09-14T17:58:59;12.13;;;10.90;;
10248;SDS011;5169;50.560;9.714;2022-09-14T18:01:38;11.77;;;10.57;;
10248;SDS011;5169;50.560;9.714;2022-09-14T18:04:06;13.23;;;10.57;;
10248;SDS011;5169;50.560;9.714;2022-09-14T18:06:37;12.80;;;11.07;;
10248;SDS011;5169;50.560;9.714;2022-09-14T18:09:07;11.73;;;10.63;;
10248;SDS011;5169;50.560;9.714;2022-09-14T18:11:35;13.93;;;10.87;;
10248;SDS011;5169;50.560;9.714;2022-09-14T18:14:01;12.50;;;10.90;;
10248;SDS011;5169;50.560;9.714;2022-09-14T18:16:28;11.97;;;10.77;;
10248;SDS011;5169;50.560;9.714;2022-09-14T18:18:54;15.03;;;10.97;;
10248;SDS011;5169;50.560;9.714;2022-09-14T18:21:21;13.53;;;11.03;;
10248;SDS011;5169;50.560;9.714;2022-09-14T18:23:50;12.93;;;11.07;;